Arlington, Maryland
Current Conditions -  °F | °C
As of 11:54 PM on Monday 22 Dec 2014 (Local Time) from KBWI Reporting Station
Haze Haze  
Wind Chill: 40°   Ceiling: 800
Heat Index: 40°   Visibility: 4mi
Dew Point: 38°   Wind: 3mph
Humidity: 93%   Direction: 40°NE
Pressure: 30.07"   Gusts: NA
Location:  39.3453°N, 76.6832°W
Report Text: KBWI 230454Z 04003KT 4SM BR OVC008 04/03 A3007 RMK AO2 SLP181 T00440033 400441050
Loading
Personal Weather Stations






























Interactive Weather Map New forecast layout! Learn more

10-Day Weather Forecast

Advertisements
Track Severe Weather on mobile